Time;durP1;ratioP1;P1;durP2;ratioP2;P2;SDS_P1;SDS_P2;PMS_P1;PMS_P2;Temp;Humidity;BMP_temperature;BMP_pressure;BME280_temperature;BME280_humidity;BME280_pressure;Samples;Min_cycle;Max_cycle;Signal;HPM_P1;HPM_P2
2024/04/21 00:01:55;;;;;;;0.60;0.35;;;;;;;6.90;100.00;100666.50;5516980;25;20413;-78
2024/04/21 00:04:21;;;;;;;1.20;0.87;;;;;;;6.89;100.00;100672.91;5510793;25;20314;-78
2024/04/21 00:06:47;;;;;;;1.80;0.60;;;;;;;6.90;100.00;100671.06;5514132;26;20788;-77
2024/04/21 00:09:12;;;;;;;0.70;0.70;;;;;;;6.93;100.00;100671.44;5507506;25;20352;-78
2024/04/21 00:11:37;;;;;;;0.60;0.60;;;;;;;6.90;100.00;100668.34;5495098;25;20349;-78
2024/04/21 00:14:02;;;;;;;0.53;0.50;;;;;;;6.91;100.00;100665.47;5506924;26;20457;-78
2024/04/21 00:16:28;;;;;;;0.97;0.40;;;;;;;6.90;100.00;100665.66;5511642;26;20442;-77
2024/04/21 00:18:53;;;;;;;1.23;0.50;;;;;;;6.91;100.00;100662.78;5516506;25;20320;-78
2024/04/21 00:21:18;;;;;;;0.50;0.50;;;;;;;6.91;100.00;100653.84;5516583;25;20786;-77
2024/04/21 00:23:43;;;;;;;0.90;0.50;;;;;;;6.96;100.00;100651.31;5514623;25;20312;-77
2024/04/21 00:26:09;;;;;;;0.43;0.30;;;;;;;6.94;100.00;100654.25;5509877;26;20658;-78
2024/04/21 00:28:34;;;;;;;0.50;0.50;;;;;;;6.94;100.00;100645.34;5512372;26;20315;-78
2024/04/21 00:30:59;;;;;;;0.40;0.40;;;;;;;6.95;100.00;100638.91;5516291;25;20398;-78
2024/04/21 00:33:25;;;;;;;2.00;0.50;;;;;;;6.92;100.00;100642.03;5514934;25;20364;-78
2024/04/21 00:35:50;;;;;;;0.55;0.55;;;;;;;6.91;100.00;100635.84;5509907;25;20343;-78
2024/04/21 00:38:15;;;;;;;2.10;0.50;;;;;;;6.88;100.00;100635.44;5514155;26;20355;-77
2024/04/21 00:40:41;;;;;;;0.70;0.70;;;;;;;6.91;100.00;100635.00;5516168;25;20331;-78
2024/04/21 00:43:08;;;;;;;1.40;0.70;;;;;;;6.94;100.00;100629.19;5516134;25;20398;-78
2024/04/21 00:45:40;;;;;;;0.70;0.50;;;;;;;6.95;100.00;100631.63;5501148;25;20808;-78
2024/04/21 00:48:07;;;;;;;0.63;0.63;;;;;;;6.98;100.00;100625.00;5511957;26;20374;-78
2024/04/21 00:50:33;;;;;;;1.50;0.60;;;;;;;6.96;100.00;100617.13;5516232;25;20384;-78
2024/04/21 00:52:58;;;;;;;0.70;0.70;;;;;;;6.99;100.00;100613.16;5516308;25;20308;-77
2024/04/21 00:55:25;;;;;;;0.80;0.80;;;;;;;6.95;100.00;100614.66;5511335;25;20348;-77
2024/04/21 00:57:51;;;;;;;1.35;0.70;;;;;;;6.99;100.00;100618.56;5488426;26;20321;-78
2024/04/21 01:00:17;;;;;;;1.47;1.17;;;;;;;6.99;100.00;100611.31;5515965;25;20348;-77
2024/04/21 01:02:42;;;;;;;0.90;0.75;;;;;;;6.93;100.00;100611.34;5492646;25;20306;-78
2024/04/21 01:05:08;;;;;;;0.93;0.90;;;;;;;6.93;100.00;100611.34;5482218;26;20705;-77
2024/04/21 01:07:33;;;;;;;1.23;0.95;;;;;;;6.92;100.00;100607.00;5505272;26;20849;-78
2024/04/21 01:09:59;;;;;;;1.07;1.07;;;;;;;6.93;100.00;100611.34;5491859;25;20335;-77
2024/04/21 01:12:24;;;;;;;1.20;1.10;;;;;;;6.91;100.00;100608.06;5515729;25;20312;-78
2024/04/21 01:14:49;;;;;;;1.33;1.23;;;;;;;6.94;100.00;100604.94;5514716;25;20797;-78
2024/04/21 01:17:14;;;;;;;1.67;1.53;;;;;;;6.93;100.00;100601.41;5509081;26;20311;-77
2024/04/21 01:19:40;;;;;;;2.60;1.80;;;;;;;7.00;100.00;100609.44;5509695;26;20323;-77
2024/04/21 01:22:05;;;;;;;3.77;2.63;;;;;;;6.99;100.00;100605.91;5515809;25;20392;-77
2024/04/21 01:24:30;;;;;;;4.38;2.60;;;;;;;7.02;100.00;100602.78;5515282;25;20347;-78
2024/04/21 01:26:55;;;;;;;3.27;2.47;;;;;;;6.99;100.00;100597.84;5509878;25;20343;-77
2024/04/21 01:29:21;;;;;;;2.23;2.03;;;;;;;6.97;100.00;100594.53;5512263;26;20326;-77
2024/04/21 01:31:46;;;;;;;2.07;1.93;;;;;;;7.02;100.00;100601.94;5515467;25;20332;-78
2024/04/21 01:34:11;;;;;;;4.23;3.63;;;;;;;7.03;100.00;100590.13;5515509;25;20485;-78
2024/04/21 01:36:36;;;;;;;5.00;3.13;;;;;;;7.03;100.00;100580.19;5497486;25;20361;-78
2024/04/21 01:39:02;;;;;;;5.23;3.10;;;;;;;7.11;100.00;100585.28;5503691;26;20346;-78
2024/04/21 01:41:27;;;;;;;4.00;3.70;;;;;;;6.95;100.00;100574.25;5515330;25;20644;-79
2024/04/21 01:43:53;;;;;;;5.27;4.57;;;;;;;6.90;100.00;100568.69;5514768;25;20319;-78
2024/04/21 01:46:18;;;;;;;4.97;4.47;;;;;;;6.93;100.00;100569.06;5513835;25;20659;-78
2024/04/21 01:48:43;;;;;;;9.40;5.30;;;;;;;6.94;100.00;100562.66;5507965;26;20322;-79
2024/04/21 01:51:08;;;;;;;5.80;5.20;;;;;;;6.94;100.00;100557.25;5514570;26;20416;-79
2024/04/21 01:53:35;;;;;;;5.37;4.87;;;;;;;6.99;100.00;100554.72;5495167;25;20305;-78
2024/04/21 01:56:00;;;;;;;6.18;5.57;;;;;;;7.07;100.00;100553.63;5500064;26;20825;-78
2024/04/21 01:58:25;;;;;;;5.95;5.13;;;;;;;7.03;100.00;100547.03;5508896;25;20350;-79
2024/04/21 02:00:51;;;;;;;5.33;4.83;;;;;;;7.02;100.00;100542.66;5512349;26;20767;-78
2024/04/21 02:03:16;;;;;;;6.93;5.40;;;;;;;7.01;100.00;100539.19;5499744;25;20357;-78
2024/04/21 02:05:41;;;;;;;6.23;4.90;;;;;;;7.00;100.00;100531.31;5514954;25;20304;-78
2024/04/21 02:08:07;;;;;;;5.38;4.88;;;;;;;6.99;100.00;100526.94;5505462;25;20668;-79
2024/04/21 02:10:32;;;;;;;5.50;4.93;;;;;;;6.97;100.00;100526.34;5469093;26;20316;-78
2024/04/21 02:12:57;;;;;;;6.07;4.60;;;;;;;7.00;100.00;100525.91;5484293;26;20329;-78
2024/04/21 02:15:23;;;;;;;4.77;4.37;;;;;;;7.02;100.00;100515.72;5497960;26;20311;-78
2024/04/21 02:17:48;;;;;;;5.03;4.63;;;;;;;7.01;100.00;100512.25;5499799;26;20344;-78
2024/04/21 02:20:14;;;;;;;4.90;4.43;;;;;;;7.03;100.00;100515.53;5486569;26;20311;-78
2024/04/21 02:22:39;;;;;;;5.45;4.43;;;;;;;7.03;100.00;100517.38;5494831;26;20310;-78
2024/04/21 02:25:04;;;;;;;5.73;4.33;;;;;;;7.01;100.00;100511.41;5495740;26;20310;-78
2024/04/21 02:27:30;;;;;;;4.63;4.20;;;;;;;7.03;100.00;100518.22;5492837;25;20310;-78
2024/04/21 02:29:55;;;;;;;4.82;4.43;;;;;;;6.99;100.00;100519.69;5472633;26;20322;-79
2024/04/21 02:32:20;;;;;;;5.37;4.87;;;;;;;7.00;100.00;100507.88;5494739;26;20306;-78
2024/04/21 02:34:45;;;;;;;6.25;5.30;;;;;;;7.00;100.00;100510.56;5494483;26;20678;-78
2024/04/21 02:37:11;;;;;;;6.07;5.43;;;;;;;6.97;100.00;100502.09;5498422;26;20418;-78
2024/04/21 02:39:36;;;;;;;7.93;5.40;;;;;;;6.96;100.00;100497.75;5496712;25;20406;-78
2024/04/21 02:42:01;;;;;;;6.33;5.00;;;;;;;7.01;100.00;100506.84;5494406;26;20345;-78
2024/04/21 02:44:27;;;;;;;8.53;5.70;;;;;;;7.00;100.00;100504.38;5486173;26;20325;-78
2024/04/21 02:46:52;;;;;;;6.47;5.17;;;;;;;7.00;100.00;100510.56;5494181;26;20311;-78
2024/04/21 02:49:17;;;;;;;8.70;5.13;;;;;;;7.04;100.00;100505.56;5497159;26;20980;-78
2024/04/21 02:51:42;;;;;;;6.27;5.53;;;;;;;7.05;100.00;100499.94;5481232;26;20313;-78
2024/04/21 02:54:08;;;;;;;6.67;5.40;;;;;;;7.03;100.00;100502.06;5481593;26;20348;-79
2024/04/21 02:56:33;;;;;;;9.10;5.20;;;;;;;7.01;100.00;100493.38;5497779;26;20367;-79
2024/04/21 02:58:58;;;;;;;7.00;5.00;;;;;;;7.03;100.00;100496.66;5504488;25;20315;-78
2024/04/21 03:01:23;;;;;;;6.27;5.20;;;;;;;7.06;100.00;100503.47;5495510;25;20323;-79
2024/04/21 03:03:49;;;;;;;5.77;4.67;;;;;;;7.09;100.00;100500.34;5495736;26;20822;-78
2024/04/21 03:06:14;;;;;;;8.18;5.13;;;;;;;7.10;100.00;100492.03;5496163;26;20339;-78
2024/04/21 03:08:42;;;;;;;10.17;5.10;;;;;;;7.06;100.00;100501.59;5496003;26;20311;-78
2024/04/21 03:11:07;;;;;;;7.47;5.30;;;;;;;7.05;100.00;100491.88;5498150;25;20349;-78
2024/04/21 03:13:33;;;;;;;8.67;5.57;;;;;;;7.06;100.00;100493.53;5489358;26;20696;-78
2024/04/21 03:16:02;;;;;;;6.57;5.07;;;;;;;7.02;100.00;100491.47;5487796;26;20919;-78
2024/04/21 03:18:27;;;;;;;9.15;5.25;;;;;;;6.98;100.00;100484.91;5499826;26;20312;-78
2024/04/21 03:20:57;;;;;;;7.17;5.17;;;;;;;6.96;100.00;100489.69;5500243;25;20610;-79
2024/04/21 03:23:23;;;;;;;11.90;8.57;;;;;;;6.95;100.00;100488.84;5497473;26;20472;-78
2024/04/21 03:25:48;;;;;;;8.02;5.55;;;;;;;6.99;100.00;100484.66;5489464;26;20321;-79
2024/04/21 03:28:13;;;;;;;9.53;5.90;;;;;;;6.97;100.00;100488.63;5498888;26;20318;-79
2024/04/21 03:30:38;;;;;;;8.37;4.57;;;;;;;6.88;100.00;100500.75;5501345;25;20644;-78
2024/04/21 03:33:04;;;;;;;6.43;4.40;;;;;;;6.87;100.00;100499.91;5497410;26;20916;-79
2024/04/21 03:35:29;;;;;;;8.30;5.10;;;;;;;6.90;100.00;100491.38;5484342;26;20317;-78
2024/04/21 03:37:54;;;;;;;5.03;3.70;;;;;;;6.84;100.00;100502.22;5494436;26;20341;-78
2024/04/21 03:40:20;;;;;;;5.07;3.63;;;;;;;6.88;100.00;100493.50;5503203;25;20366;-78
2024/04/21 03:42:45;;;;;;;4.07;3.67;;;;;;;6.92;100.00;100489.28;5497189;26;20314;-78
2024/04/21 03:45:10;;;;;;;6.27;3.17;;;;;;;6.90;100.00;100479.78;5497328;26;20338;-78
2024/04/21 03:47:35;;;;;;;5.27;3.20;;;;;;;6.93;100.00;100488.25;5496998;26;20338;-78
2024/04/21 03:50:01;;;;;;;6.00;3.17;;;;;;;6.92;100.00;100483.91;5489361;26;20312;-78
2024/04/21 03:52:26;;;;;;;5.10;3.10;;;;;;;6.93;100.00;100488.25;5491492;26;20322;-78
2024/04/21 03:54:51;;;;;;;2.97;2.53;;;;;;;6.94;100.00;100489.09;5497117;26;20355;-78
2024/04/21 03:57:17;;;;;;;4.83;2.73;;;;;;;6.94;100.00;100492.59;5497282;26;20650;-78
2024/04/21 03:59:42;;;;;;;2.88;2.67;;;;;;;6.96;100.00;100487.81;5501295;26;20363;-78
2024/04/21 04:02:07;;;;;;;3.30;2.43;;;;;;;7.01;100.00;100490.69;5500225;25;20344;-77
2024/04/21 04:04:32;;;;;;;4.70;2.70;;;;;;;6.97;100.00;100494.03;5496876;26;20436;-78
2024/04/21 04:06:58;;;;;;;3.13;2.20;;;;;;;6.92;100.00;100491.16;5496871;26;20408;-77
2024/04/21 04:09:23;;;;;;;2.77;2.30;;;;;;;6.91;100.00;100489.53;5481635;26;20324;-78
2024/04/21 04:11:49;;;;;;;3.73;2.40;;;;;;;6.92;100.00;100485.75;5502657;25;20726;-77
2024/04/21 04:14:15;;;;;;;4.72;2.17;;;;;;;6.95;100.00;100488.84;5496803;26;20361;-78
2024/04/21 04:16:40;;;;;;;4.97;2.03;;;;;;;6.95;100.00;100480.75;5488836;26;20313;-78
2024/04/21 04:19:05;;;;;;;4.37;2.07;;;;;;;6.86;100.00;100487.47;5489840;26;20404;-78
2024/04/21 04:21:31;;;;;;;3.37;1.83;;;;;;;6.79;100.00;100487.53;5498039;26;20312;-78
2024/04/21 04:23:56;;;;;;;3.70;1.47;;;;;;;6.82;100.00;100477.38;5497647;25;20318;-78
2024/04/21 04:26:21;;;;;;;2.73;1.37;;;;;;;6.75;100.00;100480.94;5490197;26;20397;-77
2024/04/21 04:28:46;;;;;;;2.43;1.30;;;;;;;6.78;100.00;100487.78;5487737;26;20322;-78
2024/04/21 04:31:12;;;;;;;2.93;1.43;;;;;;;6.79;100.00;100476.75;5501068;26;20840;-78
2024/04/21 04:33:37;;;;;;;2.10;1.47;;;;;;;6.81;100.00;100481.94;5499952;25;20324;-78
2024/04/21 04:36:02;;;;;;;3.00;1.30;;;;;;;6.79;100.00;100486.69;5496541;26;20335;-78
2024/04/21 04:38:28;;;;;;;3.30;1.20;;;;;;;6.79;100.00;100489.41;5496207;26;20930;-78
2024/04/21 04:40:53;;;;;;;1.90;1.33;;;;;;;6.74;100.00;100484.69;5498788;26;20706;-78
2024/04/21 04:43:18;;;;;;;3.23;1.20;;;;;;;6.75;100.00;100485.50;5492743;25;20318;-78
2024/04/21 04:45:43;;;;;;;1.87;1.07;;;;;;;6.75;100.00;100489.00;5496165;26;20318;-77
2024/04/21 04:48:09;;;;;;;3.80;1.30;;;;;;;6.76;100.00;100481.75;5493182;26;20968;-77
2024/04/21 04:50:36;;;;;;;4.50;1.63;;;;;;;6.75;100.00;100485.50;5495367;26;20318;-78
2024/04/21 04:53:02;;;;;;;3.13;1.00;;;;;;;6.75;100.00;100490.91;5503353;25;20342;-78
2024/04/21 04:55:27;;;;;;;2.00;1.10;;;;;;;6.78;100.00;100480.50;5496250;25;20314;-78
2024/04/21 04:57:52;;;;;;;3.10;1.43;;;;;;;6.83;100.00;100485.22;5496199;26;20639;-78
2024/04/21 05:00:18;;;;;;;1.70;1.47;;;;;;;6.85;100.00;100483.13;5490566;26;20314;-78
2024/04/21 05:02:43;;;;;;;5.22;1.83;;;;;;;6.86;100.00;100481.25;5491557;26;20311;-78
2024/04/21 05:05:08;;;;;;;2.23;1.33;;;;;;;6.83;100.00;100487.09;5485758;26;20792;-78
2024/04/21 05:07:34;;;;;;;5.15;1.63;;;;;;;6.83;100.00;100498.69;5494958;26;20412;-78
2024/04/21 05:10:00;;;;;;;4.68;1.83;;;;;;;6.83;100.00;100497.88;5465343;26;20329;-79
2024/04/21 05:12:25;;;;;;;4.87;1.50;;;;;;;6.85;100.00;100504.69;5495676;26;20322;-78
2024/04/21 05:14:50;;;;;;;2.27;1.27;;;;;;;6.85;100.00;100503.88;5500519;25;20304;-79
2024/04/21 05:17:15;;;;;;;2.00;1.33;;;;;;;6.83;100.00;100512.16;5489949;26;20311;-79
2024/04/21 05:19:41;;;;;;;3.27;1.17;;;;;;;6.82;100.00;100513.19;5482292;26;20342;-78
2024/04/21 05:22:06;;;;;;;4.90;1.50;;;;;;;6.86;100.00;100514.41;5496674;26;20875;-78
2024/04/21 05:24:31;;;;;;;1.37;1.20;;;;;;;6.89;100.00;100513.97;5502674;25;20348;-79
2024/04/21 05:26:57;;;;;;;2.72;1.45;;;;;;;6.90;100.00;100510.25;5493950;26;20351;-78
2024/04/21 05:29:22;;;;;;;1.60;1.25;;;;;;;6.90;100.00;100512.94;5495579;26;20837;-79
2024/04/21 05:31:47;;;;;;;2.53;1.40;;;;;;;6.89;100.00;100516.66;5488030;26;20361;-78
2024/04/21 05:34:13;;;;;;;2.60;1.65;;;;;;;6.90;100.00;100517.50;5491213;26;20408;-78
2024/04/21 05:36:38;;;;;;;3.22;1.95;;;;;;;6.92;100.00;100512.69;5493710;26;20348;-78
2024/04/21 05:39:04;;;;;;;6.33;1.80;;;;;;;6.92;100.00;100516.22;5495558;26;20310;-78
2024/04/21 05:41:29;;;;;;;5.72;1.40;;;;;;;6.96;100.00;100516.63;5495311;26;20334;-78
2024/04/21 05:43:54;;;;;;;2.70;1.90;;;;;;;6.97;100.00;100520.97;5499388;26;20322;-79
2024/04/21 05:46:19;;;;;;;6.53;1.73;;;;;;;6.96;100.00;100524.69;5481903;25;20346;-79
2024/04/21 05:48:45;;;;;;;5.27;2.00;;;;;;;6.96;100.00;100524.69;5493389;26;20318;-78
2024/04/21 05:51:10;;;;;;;3.70;1.50;;;;;;;6.95;100.00;100523.88;5491693;26;20326;-77
2024/04/21 05:53:35;;;;;;;8.47;2.17;;;;;;;6.96;100.00;100527.38;5491463;26;20650;-79
2024/04/21 05:56:03;;;;;;;6.03;1.73;;;;;;;6.96;100.00;100527.38;5501529;25;20429;-80
2024/04/21 05:58:28;;;;;;;6.70;2.17;;;;;;;6.96;100.00;100525.53;5487451;26;20309;-77
2024/04/21 06:00:53;;;;;;;5.20;1.53;;;;;;;6.95;100.00;100523.88;5480879;26;20347;-77
2024/04/21 06:03:19;;;;;;;5.28;2.30;;;;;;;6.96;100.00;100536.31;5495075;26;20958;-77
2024/04/21 06:05:44;;;;;;;4.70;2.40;;;;;;;6.98;100.00;100528.81;5464286;26;20354;-78
2024/04/21 06:08:09;;;;;;;6.57;2.60;;;;;;;6.92;100.00;100532.41;5494384;26;20396;-77
2024/04/21 06:10:34;;;;;;;6.13;2.27;;;;;;;6.96;100.00;100528.22;5494821;26;20776;-77
2024/04/21 06:13:00;;;;;;;7.17;2.60;;;;;;;6.97;100.00;100526.34;5494921;26;20323;-77
2024/04/21 06:15:25;;;;;;;11.17;3.43;;;;;;;6.94;100.00;100530.31;5499577;26;20318;-77
2024/04/21 06:17:50;;;;;;;11.10;4.97;;;;;;;6.95;100.00;100536.53;5496636;26;20308;-77
2024/04/21 06:20:16;;;;;;;11.37;5.70;;;;;;;6.98;100.00;100533.41;5494363;26;20326;-77
2024/04/21 06:22:41;;;;;;;9.33;4.50;;;;;;;7.01;100.00;100533.78;5494615;26;20809;-77
2024/04/21 06:25:06;;;;;;;14.05;7.95;;;;;;;7.00;100.00;100529.44;5494216;26;20370;-77
2024/04/21 06:27:33;;;;;;;16.23;8.53;;;;;;;6.98;100.00;100534.19;5472098;26;20308;-78
2024/04/21 06:29:58;;;;;;;15.02;7.53;;;;;;;6.95;100.00;100531.16;5492357;26;20330;-75
2024/04/21 06:32:24;;;;;;;12.32;5.80;;;;;;;7.06;100.00;100525.03;5490679;26;20428;-78
2024/04/21 06:34:49;;;;;;;7.77;3.70;;;;;;;7.16;100.00;100534.28;5492441;26;20678;-81
2024/04/21 06:37:15;;;;;;;8.60;4.47;;;;;;;7.18;100.00;100534.88;5505131;25;20327;-78
2024/04/21 06:39:40;;;;;;;14.05;4.45;;;;;;;7.16;100.00;100533.44;5481398;25;20314;-77
2024/04/21 06:42:07;;;;;;;9.00;3.70;;;;;;;7.21;100.00;100528.22;5478051;26;20668;-78
2024/04/21 06:44:32;;;;;;;8.15;3.20;;;;;;;7.22;100.00;100528.00;5497852;26;20358;-78
2024/04/21 06:46:57;;;;;;;7.03;4.00;;;;;;;7.26;100.00;100523.00;5494709;26;20311;-77
2024/04/21 06:49:23;;;;;;;13.33;3.77;;;;;;;7.25;100.00;100519.47;5499599;25;20316;-77
2024/04/21 06:51:48;;;;;;;10.97;4.03;;;;;;;7.27;100.00;100522.78;5495122;26;20805;-77
2024/04/21 06:54:14;;;;;;;10.27;3.87;;;;;;;7.29;100.00;100520.69;5487344;26;20412;-77
2024/04/21 06:56:39;;;;;;;8.35;3.40;;;;;;;7.28;100.00;100523.59;5499476;26;20883;-77
2024/04/21 06:59:04;;;;;;;12.10;4.13;;;;;;;7.28;100.00;100529.81;5499229;25;20356;-77
2024/04/21 07:01:29;;;;;;;8.03;3.80;;;;;;;7.27;100.00;100533.56;5478168;26;20306;-77
2024/04/21 07:03:55;;;;;;;7.80;3.93;;;;;;;7.23;100.00;100526.97;5488989;26;20305;-77
2024/04/21 07:06:21;;;;;;;11.23;4.30;;;;;;;7.25;100.00;100529.41;5489421;26;20715;-77
2024/04/21 07:08:46;;;;;;;7.63;3.17;;;;;;;7.38;100.00;100531.16;5494514;25;20351;-77
2024/04/21 07:11:11;;;;;;;8.90;3.03;;;;;;;7.44;100.00;100523.03;5495613;26;20881;-77
2024/04/21 07:13:36;;;;;;;9.93;2.60;;;;;;;7.48;100.00;100526.09;5495321;26;20366;-77
2024/04/21 07:16:02;;;;;;;6.90;3.00;;;;;;;7.54;100.00;100523.31;5495309;26;20393;-77
2024/04/21 07:18:27;;;;;;;10.17;2.53;;;;;;;7.59;100.00;100525.34;5502922;26;20667;-77
2024/04/21 07:20:52;;;;;;;12.33;3.03;;;;;;;7.59;100.00;100520.78;5475363;26;20675;-78
2024/04/21 07:23:18;;;;;;;12.43;2.73;;;;;;;7.58;100.00;100521.00;5497680;26;20355;-78
2024/04/21 07:25:43;;;;;;;6.97;2.73;;;;;;;7.65;100.00;100524.44;5495661;26;20342;-77
2024/04/21 07:28:08;;;;;;;11.97;2.87;;;;;;;7.75;100.00;100522.88;5501397;26;20395;-77
2024/04/21 07:30:34;;;;;;;10.43;3.30;;;;;;;7.83;100.00;100516.38;5501372;25;20338;-77
2024/04/21 07:33:00;;;;;;;4.70;2.77;;;;;;;7.89;100.00;100518.16;5496622;26;20398;-77
2024/04/21 07:35:25;;;;;;;10.23;4.13;;;;;;;7.97;100.00;100511.66;5485555;26;20350;-77
2024/04/21 07:37:50;;;;;;;5.32;2.88;;;;;;;8.04;100.00;100518.59;5499036;26;20323;-77
2024/04/21 07:40:16;;;;;;;8.40;2.57;;;;;;;8.05;100.00;100520.25;5487357;25;20328;-76
2024/04/21 07:42:42;;;;;;;7.00;2.47;;;;;;;8.19;100.00;100526.31;5496936;26;20844;-77
2024/04/21 07:45:07;;;;;;;8.33;3.63;;;;;;;8.27;100.00;100531.38;5496993;26;20734;-78
2024/04/21 07:47:32;;;;;;;8.20;2.87;;;;;;;8.32;100.00;100526.16;5496586;26;20319;-75
2024/04/21 07:49:58;;;;;;;9.20;3.77;;;;;;;8.10;100.00;100530.38;5501824;26;20651;-75
2024/04/21 07:52:23;;;;;;;11.40;3.77;;;;;;;7.87;100.00;100525.66;5495863;26;20314;-75
2024/04/21 07:54:49;;;;;;;9.33;3.60;;;;;;;7.82;100.00;100547.09;5495862;26;20326;-77
2024/04/21 07:57:14;;;;;;;9.33;4.00;;;;;;;7.83;100.00;100536.09;5496413;26;20319;-77
2024/04/21 07:59:39;;;;;;;6.73;3.03;;;;;;;7.87;100.00;100539.13;5501285;26;20314;-76
2024/04/21 08:02:05;;;;;;;9.63;3.00;;;;;;;7.90;100.00;100544.13;5500333;25;20882;-76
2024/04/21 08:04:30;;;;;;;8.63;3.30;;;;;;;7.95;100.00;100538.84;5497049;26;20343;-77
2024/04/21 08:06:56;;;;;;;9.43;3.77;;;;;;;8.04;100.00;100542.06;5494065;26;20331;-77
2024/04/21 08:09:22;;;;;;;7.07;2.80;;;;;;;8.11;100.00;100542.81;5466487;26;20807;-76
2024/04/21 08:11:47;;;;;;;10.77;2.33;;;;;;;8.16;100.00;100554.59;5498710;25;20364;-77
2024/04/21 08:14:12;;;;;;;8.23;2.43;;;;;;;8.07;100.00;100547.00;5484059;26;20389;-77
2024/04/21 08:16:38;;;;;;;8.43;2.77;;;;;;;7.87;100.00;100552.63;5476326;26;20309;-77
2024/04/21 08:19:03;;;;;;;8.27;2.47;;;;;;;7.86;100.00;100548.31;5486220;26;20318;-77
2024/04/21 08:21:29;;;;;;;7.97;3.53;;;;;;;7.82;100.00;100547.09;5502793;25;20348;-76
2024/04/21 08:23:54;;;;;;;12.02;3.65;;;;;;;7.82;100.00;100557.88;5485518;25;20322;-77
2024/04/21 08:26:20;;;;;;;4.70;2.77;;;;;;;7.87;100.00;100547.22;5462896;26;20349;-77
2024/04/21 08:28:45;;;;;;;7.70;3.70;;;;;;;7.94;100.00;100549.84;5491444;26;20346;-77
2024/04/21 08:31:10;;;;;;;6.90;2.90;;;;;;;8.07;100.00;100547.81;5497495;26;20308;-77
2024/04/21 08:33:36;;;;;;;7.23;2.53;;;;;;;8.14;100.00;100550.44;5495624;25;20378;-78
2024/04/21 08:36:01;;;;;;;4.68;1.60;;;;;;;8.11;100.00;100542.81;5479022;26;20327;-77
2024/04/21 08:38:27;;;;;;;4.33;1.73;;;;;;;8.17;100.00;100550.81;5471489;26;20424;-77
2024/04/21 08:40:52;;;;;;;6.20;2.05;;;;;;;8.27;100.00;100548.41;5496181;26;20819;-76
2024/04/21 08:43:25;;;;;;;8.27;2.90;;;;;;;8.37;100.00;100544.38;5472577;26;20323;-77
2024/04/21 08:45:55;;;;;;;10.50;3.38;;;;;;;8.45;100.00;100552.16;5491688;26;20306;-78
2024/04/21 08:48:21;;;;;;;9.93;4.18;;;;;;;8.51;100.00;100545.84;5495940;26;20366;-77
2024/04/21 08:50:47;;;;;;;5.97;2.57;;;;;;;8.60;100.00;100552.56;5500817;26;20322;-77
2024/04/21 08:53:13;;;;;;;7.70;2.30;;;;;;;8.77;100.00;100548.16;5496109;25;20332;-77
2024/04/21 08:55:40;;;;;;;2.65;1.67;;;;;;;8.91;100.00;100548.78;5494078;26;20402;-77
2024/04/21 08:58:07;;;;;;;5.10;1.65;;;;;;;8.96;100.00;100552.44;5494361;26;20413;-77
2024/04/21 09:00:33;;;;;;;4.65;1.30;;;;;;;9.26;100.00;100545.06;5495047;26;20808;-77
2024/04/21 09:02:59;;;;;;;5.30;1.90;;;;;;;9.45;100.00;100536.88;5492088;26;20340;-77
2024/04/21 09:05:26;;;;;;;4.75;1.55;;;;;;;9.41;100.00;100546.50;5485261;26;20383;-78
2024/04/21 09:07:54;;;;;;;4.13;1.38;;;;;;;9.20;100.00;100551.41;5510282;25;20857;-76
2024/04/21 09:10:19;;;;;;;3.95;1.40;;;;;;;9.11;100.00;100549.28;5494129;26;20350;-77
2024/04/21 09:12:44;;;;;;;6.45;1.67;;;;;;;9.25;100.00;100542.63;5501277;25;20313;-77
2024/04/21 09:15:10;;;;;;;5.80;1.60;;;;;;;9.77;100.00;100546.25;5490548;26;20314;-77
2024/04/21 09:17:35;;;;;;;5.72;1.80;;;;;;;10.16;100.00;100531.94;5481347;26;20311;-76
2024/04/21 09:20:00;;;;;;;5.60;1.57;;;;;;;10.08;100.00;100529.56;5478350;26;20352;-77
2024/04/21 09:22:26;;;;;;;3.50;1.20;;;;;;;10.05;100.00;100534.66;5501936;25;20727;-77
2024/04/21 09:24:51;;;;;;;4.30;1.07;;;;;;;9.97;100.00;100538.56;5496403;25;20310;-76
2024/04/21 09:27:18;;;;;;;3.90;1.20;;;;;;;9.63;100.00;100544.84;5495142;26;20318;-77
2024/04/21 09:29:43;;;;;;;4.65;1.60;;;;;;;9.22;100.00;100557.41;5495296;26;20689;-77
2024/04/21 09:32:09;;;;;;;5.15;1.42;;;;;;;9.00;100.00;100553.63;5490476;26;20316;-77
2024/04/21 09:34:35;;;;;;;4.88;2.08;;;;;;;8.82;100.00;100572.63;5492680;26;20886;-78
2024/04/21 09:37:01;;;;;;;7.47;1.80;;;;;;;8.68;100.00;100565.75;5494597;26;20326;-78
2024/04/21 09:39:27;;;;;;;1.60;1.38;;;;;;;8.62;100.00;100563.97;5495181;26;20666;-78
2024/04/21 09:41:54;;;;;;;8.05;1.95;;;;;;;8.69;100.00;100562.81;5495144;26;20315;-78
2024/04/21 09:44:20;;;;;;;7.93;1.97;;;;;;;8.75;100.00;100564.63;5470035;26;20401;-79
2024/04/21 09:46:47;;;;;;;6.10;1.90;;;;;;;8.89;100.00;100559.84;5494660;26;20396;-80
2024/04/21 09:49:16;;;;;;;6.90;1.73;;;;;;;9.04;100.00;100568.31;5485149;26;20329;-78
2024/04/21 09:51:43;;;;;;;5.20;1.90;;;;;;;9.19;100.00;100566.00;5495119;26;20408;-77
2024/04/21 09:54:09;;;;;;;3.33;1.50;;;;;;;9.79;100.00;100569.31;5498972;25;20419;-77
2024/04/21 09:56:40;;;;;;;5.00;1.30;;;;;;;11.05;100.00;100568.31;5491822;26;20362;-81
2024/04/21 09:59:09;;;;;;;2.50;0.95;;;;;;;12.11;100.00;100572.66;5494923;26;20357;-77
2024/04/21 10:01:36;;;;;;;4.28;1.35;;;;;;;12.28;100.00;100575.31;5498918;26;20367;-77
2024/04/21 10:04:03;;;;;;;3.90;1.00;;;;;;;11.83;100.00;100573.63;5498093;25;20331;-77
2024/04/21 10:06:31;;;;;;;3.30;1.40;;;;;;;11.12;100.00;100568.13;5486957;26;20878;-80
2024/04/21 10:09:01;;;;;;;5.20;2.47;;;;;;;10.56;100.00;100567.13;5473266;26;20484;-79
2024/04/21 10:11:26;;;;;;;6.43;3.10;;;;;;;10.26;100.00;100571.94;5505082;25;20342;-79
2024/04/21 10:13:53;;;;;;;5.43;2.40;;;;;;;10.04;100.00;100570.91;5501350;25;20309;-78
2024/04/21 10:16:19;;;;;;;3.50;1.70;;;;;;;10.19;100.00;100571.25;5490672;26;20345;-78
2024/04/21 10:18:44;;;;;;;3.38;1.40;;;;;;;11.42;100.00;100566.75;5498117;26;20431;-78
2024/04/21 10:21:10;;;;;;;2.87;1.10;;;;;;;13.02;100.00;100568.22;5499895;26;20330;-78
2024/04/21 10:23:35;;;;;;;1.70;0.90;;;;;;;13.87;100.00;100564.50;5487491;26;20305;-78
2024/04/21 10:26:01;;;;;;;3.72;1.00;;;;;;;14.11;100.00;100556.75;5433450;26;20388;-78
2024/04/21 10:28:30;;;;;;;1.98;1.05;;;;;;;15.30;100.00;100560.06;5435160;26;20379;-78
2024/04/21 10:31:07;;;;;;;1.83;1.00;;;;;;;16.43;93.51;100554.06;5437804;26;20410;-77
2024/04/21 10:33:32;;;;;;;4.07;1.20;;;;;;;16.46;84.15;100554.31;5431024;26;20317;-79
2024/04/21 10:35:58;;;;;;;2.27;0.77;;;;;;;15.47;83.19;100554.31;5432870;26;20424;-78
2024/04/21 10:38:24;;;;;;;2.92;0.85;;;;;;;14.24;84.04;100554.34;5436125;26;20427;-78
2024/04/21 10:40:49;;;;;;;2.88;1.35;;;;;;;13.66;89.89;100544.53;5445466;26;20329;-77
2024/04/21 10:43:16;;;;;;;3.30;1.30;;;;;;;15.48;83.25;100542.31;5435270;26;20372;-78
2024/04/21 10:45:42;;;;;;;1.83;1.10;;;;;;;17.78;75.04;100543.22;5456162;26;20337;-78
2024/04/21 10:48:09;;;;;;;3.20;0.70;;;;;;;19.34;66.27;100536.66;5484132;26;20423;-78
2024/04/21 10:50:40;;;;;;;2.72;1.00;;;;;;;20.35;58.77;100538.34;5468141;26;20314;-78
2024/04/21 10:53:07;;;;;;;3.33;0.70;;;;;;;20.88;50.48;100538.53;5480989;25;20315;-77
2024/04/21 10:55:33;;;;;;;5.28;1.00;;;;;;;21.50;46.42;100534.00;5481071;26;20397;-77
2024/04/21 10:58:03;;;;;;;2.00;1.10;;;;;;;21.99;46.46;100526.66;5491066;26;20358;-77
2024/04/21 11:00:30;;;;;;;1.95;0.90;;;;;;;22.48;44.02;100526.28;5473190;26;20351;-77
2024/04/21 11:02:56;;;;;;;2.72;1.27;;;;;;;19.48;46.53;100532.88;5498055;26;20731;-77
2024/04/21 11:05:31;;;;;;;2.63;0.85;;;;;;;17.18;51.47;100533.63;5480098;26;20340;-78
2024/04/21 11:07:57;;;;;;;2.78;0.88;;;;;;;18.52;51.08;100523.41;5479091;26;20876;-78
2024/04/21 11:10:22;;;;;;;2.22;0.93;;;;;;;19.83;46.21;100525.91;5483661;26;20374;-77
2024/04/21 11:12:49;;;;;;;2.47;1.37;;;;;;;20.30;45.48;100530.22;5482532;26;20354;-77
2024/04/21 11:15:16;;;;;;;2.65;1.35;;;;;;;20.58;43.51;100522.72;5485618;26;20355;-79
2024/04/21 11:17:41;;;;;;;3.10;0.93;;;;;;;20.88;41.41;100527.50;5453936;26;20321;-77